Latest Weather Observations for Lihou Reef Lighthouse

IDQ60801

Issued at 8:32 pm EST Wednesday 5 August 2015 (issued every 30 minutes, with the page automatically refreshed every 10 minutes)

About weather observations | Map of weather stations | Latest weather observations for QLD | Other Formats
Station Details ID: 200880 Name: LIHOU REEF LIGHTHOUSE Lat: -17.13 Lon: 152.15 Height: 0.0 m
Data from the previous 72 hours. | See also: Recent months at Lihou Reef Lighthouse
Date/Time
EST
Temp
°C
App
Temp
°C
Dew
Point
Rel
Hum
%
Delta-T
°C
Wind Press
QNH
hPa
Press
MSL
hPa
Rain
since 9 am
mm
Dir
 
Spd
km/h
Gust
km/h
Spd
kts
Gust
kts
05/08:30pm 23.1 - - - - SSE 37 43 20 23 1014.8 1014.7 -
05/08:00pm 23.0 - - - - SE 33 41 18 22 1014.8 1014.7 -
05/07:30pm 23.3 - - - - SSE 33 41 18 22 1014.5 1014.4 -
05/07:00pm 23.5 - - - - S 32 39 17 21 1014.3 1014.2 -
05/06:30pm 23.4 - - - - S 32 39 17 21 1013.8 1013.7 -
05/06:00pm 23.4 - - - - SSE 32 39 17 21 1013.5 1013.4 -
05/05:30pm 23.5 - - - - SSE 30 33 16 18 1013.4 1013.3 -
05/05:00pm 23.7 - - - - SSE 30 37 16 20 1013.3 1013.2 -
05/04:30pm 23.6 - - - - S 30 37 16 20 1013.0 1012.9 -
05/04:00pm 23.6 - - - - S 28 35 15 19 1012.8 1012.7 -
05/03:30pm 23.6 - - - - SSE 28 35 15 19 1012.6 1012.5 -
05/03:00pm 23.6 - - - - SSE 26 35 14 19 1012.6 1012.5 -
05/02:30pm 23.7 - - - - SSE 26 33 14 18 1012.6 1012.5 -
05/02:00pm 23.6 - - - - SSE 28 33 15 18 1012.9 1012.8 -
05/01:30pm 23.4 - - - - SSE 24 30 13 16 1013.3 1013.2 -
05/01:00pm 23.6 - - - - SSE 26 32 14 17 1013.7 1013.6 -
05/12:30pm 23.6 - - - - SSE 26 37 14 20 1014.1 1014.0 -
05/12:00pm 23.6 - - - - SSE 26 32 14 17 1014.4 1014.3 -
05/11:30am 23.5 - - - - SSE 26 32 14 17 1014.8 1014.7 -
05/11:00am 23.5 - - - - SSE 26 30 14 16 1015.0 1014.9 -
05/10:30am 23.6 - - - - SSE 22 28 12 15 1015.5 1015.4 -
05/10:00am 23.5 - - - - SSE 24 30 13 16 1015.7 1015.6 -
05/09:30am 23.5 - - - - SE 24 32 13 17 1015.8 1015.7 -
05/09:00am 23.4 - - - - SE 24 30 13 16 1015.9 1015.8 -
05/08:30am 23.6 - - - - SE 24 30 13 16 1015.6 1015.5 -
05/08:00am 23.3 - - - - SE 24 32 13 17 1015.3 1015.2 -
05/07:30am 23.4 - - - - SE 20 24 11 13 1014.9 1014.8 -
05/07:00am 23.4 - - - - SSE 20 24 11 13 1014.5 1014.4 -
05/06:30am 23.0 - - - - SSE 22 26 12 14 1014.2 1014.1 -
05/06:00am 23.1 - - - - SE 20 24 11 13 1014.0 1013.9 -
05/05:30am 23.1 - - - - SE 22 28 12 15 1013.7 1013.6 -
05/05:00am 22.9 - - - - SE 24 30 13 16 1013.4 1013.3 -
05/04:30am 23.1 - - - - SE 24 28 13 15 1013.3 1013.2 -
05/04:00am 23.1 - - - - SE 24 28 13 15 1013.3 1013.2 -
05/03:30am 23.1 - - - - SE 24 30 13 16 1013.3 1013.2 -
05/03:00am 23.1 - - - - SE 24 30 13 16 1013.3 1013.2 -
05/02:30am 23.2 - - - - SE 26 32 14 17 1013.5 1013.4 -
05/02:00am 23.2 - - - - SE 28 32 15 17 1013.7 1013.6 -
05/01:30am 23.4 - - - - SE 26 32 14 17 1013.9 1013.8 -
05/01:00am 23.4 - - - - SE 28 33 15 18 1014.2 1014.1 -
05/12:30am 23.4 - - - - SE 30 33 16 18 1014.3 1014.2 -
05/12:00am 23.5 - - - - SE 30 33 16 18 1014.5 1014.4 -
 
Date/Time
EST
Temp
°C
App
Temp
°C
Dew
Point
Rel
Hum
%
Delta-T
°C
Wind Press
QNH
hPa
Press
MSL
hPa
Rain
since 9 am
mm
Dir
 
Spd
km/h
Gust
km/h
Spd
kts
Gust
kts
04/11:30pm 23.6 - - - - SE 30 33 16 18 1014.5 1014.4 -
04/11:00pm 23.6 - - - - SE 30 33 16 18 1014.7 1014.6 -
04/10:30pm 23.7 - - - - SE 28 33 15 18 1014.9 1014.8 -
04/10:00pm 23.6 - - - - SE 32 37 17 20 1014.8 1014.7 -
04/09:30pm 24.0 - - - - SSE 24 28 13 15 1014.8 1014.7 -
04/09:00pm 24.0 - - - - SE 24 30 13 16 1014.8 1014.7 -
04/08:30pm 23.9 - - - - SSE 22 26 12 14 1014.7 1014.6 -
04/08:00pm 23.6 - - - - SSE 32 37 17 20 1014.5 1014.4 -
04/07:30pm 24.0 - - - - SE 26 32 14 17 1014.2 1014.1 -
04/07:00pm 24.0 - - - - S 24 32 13 17 1013.9 1013.8 -
04/06:30pm 24.2 - - - - SSE 28 33 15 18 1013.6 1013.5 -
04/06:00pm 24.1 - - - - SSE 24 30 13 16 1013.5 1013.4 -
04/05:30pm 24.1 - - - - SSE 24 28 13 15 1013.3 1013.2 -
04/05:00pm 24.1 - - - - SSE 24 28 13 15 1013.1 1013.0 -
04/04:30pm 24.2 - - - - SSE 24 28 13 15 1013.0 1012.9 -
04/04:00pm 24.2 - - - - SSE 24 28 13 15 1013.0 1012.9 -
04/03:30pm 24.3 - - - - SE 22 26 12 14 1012.8 1012.7 -
04/03:00pm 24.1 - - - - SE 20 22 11 12 1012.8 1012.7 -
04/02:30pm 24.2 - - - - SE 20 22 11 12 1013.0 1012.9 -
04/02:00pm 24.4 - - - - ESE 19 22 10 12 1013.3 1013.2 -
04/01:30pm 24.1 - - - - ESE 20 24 11 13 1013.6 1013.5 -
04/01:00pm 23.6 - - - - E 20 24 11 13 1014.0 1013.9 -
04/12:30pm 23.3 - - - - E 20 22 11 12 1014.6 1014.5 -
04/12:00pm 24.2 - - - - ESE 20 24 11 13 1014.9 1014.8 -
04/11:30am 24.2 - - - - SE 20 24 11 13 1015.3 1015.2 -
04/11:00am 23.9 - - - - SE 24 28 13 15 1015.7 1015.6 -
04/10:30am 23.6 - - - - SE 24 28 13 15 1016.0 1015.9 -
04/10:00am 22.1 - - - - S 17 24 9 13 1016.3 1016.2 -
04/09:30am 23.7 - - - - SSE 24 28 13 15 1016.2 1016.1 -
04/09:00am 23.7 - - - - SSE 26 28 14 15 1016.2 1016.1 -
04/08:30am 23.4 - - - - S 17 24 9 13 1016.1 1016.0 -
04/08:00am 22.0 - - - - SSW 20 26 11 14 1015.8 1015.7 -
04/07:30am 21.8 - - - - SSW 19 28 10 15 1015.6 1015.5 -
04/07:00am 21.1 - - - - S 22 32 12 17 1015.6 1015.5 -
04/06:30am 21.8 - - - - SSE 22 32 12 17 1015.4 1015.3 -
04/06:00am 22.0 - - - - SSE 26 32 14 17 1015.1 1015.0 -
04/05:30am 23.3 - - - - SSE 20 24 11 13 1014.7 1014.6 -
04/05:00am 22.8 - - - - SSE 26 35 14 19 1014.4 1014.3 -
04/04:30am 24.2 - - - - ESE 19 24 10 13 1014.4 1014.3 -
04/04:00am 23.8 - - - - ESE 19 22 10 12 1014.4 1014.3 -
04/03:30am 23.8 - - - - ESE 26 32 14 17 1014.4 1014.3 -
04/03:00am 23.9 - - - - ESE 20 24 11 13 1014.6 1014.5 -
04/02:30am 24.1 - - - - ESE 24 28 13 15 1014.8 1014.7 -
04/02:00am 24.3 - - - - SE 22 28 12 15 1014.9 1014.8 -
04/01:30am 24.2 - - - - ESE 22 28 12 15 1015.2 1015.1 -
04/01:00am 24.1 - - - - ESE 26 30 14 16 1015.4 1015.3 -
04/12:30am 24.1 - - - - ESE 26 30 14 16 1015.7 1015.6 -
04/12:00am 24.3 - - - - ESE 26 32 14 17 1015.9 1015.8 -
 
Date/Time
EST
Temp
°C
App
Temp
°C
Dew
Point
Rel
Hum
%
Delta-T
°C
Wind Press
QNH
hPa
Press
MSL
hPa
Rain
since 9 am
mm
Dir
 
Spd
km/h
Gust
km/h
Spd
kts
Gust
kts
03/11:30pm 24.3 - - - - ESE 24 28 13 15 1016.0 1015.9 -
03/11:00pm 24.3 - - - - ESE 20 24 11 13 1016.4 1016.3 -
03/10:30pm 24.3 - - - - ESE 22 28 12 15 1016.4 1016.3 -
03/10:00pm 24.1 - - - - ESE 24 28 13 15 1016.4 1016.3 -
03/09:30pm 24.0 - - - - ESE 24 28 13 15 1016.4 1016.3 -
03/09:00pm 23.9 - - - - ESE 26 30 14 16 1016.4 1016.3 -
03/08:30pm 23.9 - - - - ESE 28 35 15 19 1016.4 1016.3 -
03/08:00pm 24.1 - - - - ESE 26 30 14 16 1016.3 1016.2 -
03/07:30pm 23.9 - - - - ESE 22 28 12 15 1016.0 1015.9 -
03/07:00pm 23.7 - - - - ESE 26 32 14 17 1015.7 1015.6 -
03/06:30pm 23.5 - - - - ESE 26 30 14 16 1015.5 1015.4 -
03/06:00pm 23.1 - - - - ESE 30 33 16 18 1015.3 1015.2 -
03/05:30pm 23.4 - - - - ESE 32 37 17 20 1015.0 1014.9 -
03/05:00pm 23.4 - - - - ESE 30 35 16 19 1014.9 1014.8 -
03/04:30pm 23.1 - - - - E 30 35 16 19 1014.8 1014.7 -
03/04:00pm 24.0 - - - - ESE 30 33 16 18 1014.6 1014.5 -
03/03:30pm 23.4 - - - - ESE 33 37 18 20 1014.6 1014.5 -
03/03:00pm 23.8 - - - - ESE 32 39 17 21 1014.7 1014.6 -
03/02:30pm 24.2 - - - - ESE 28 32 15 17 1014.8 1014.7 -
03/02:00pm 24.4 - - - - SE 30 35 16 19 1015.2 1015.1 -
03/01:30pm 24.3 - - - - ESE 32 37 17 20 1015.7 1015.6 -
03/01:00pm 24.2 - - - - SE 30 35 16 19 1016.0 1015.9 -
03/12:30pm 24.0 - - - - ESE 26 32 14 17 1016.2 1016.1 -
03/12:00pm 23.5 - - - - SE 30 35 16 19 1016.4 1016.3 -
03/11:30am 22.9 - - - - ESE 30 37 16 20 1016.7 1016.6 -
03/11:00am 23.8 - - - - ESE 28 32 15 17 1017.0 1016.9 -
03/10:30am 23.6 - - - - ESE 30 35 16 19 1017.6 1017.5 -
03/10:00am 22.2 - - - - E 37 44 20 24 1018.0 1017.9 -
03/09:30am 24.4 - - - - ESE 33 39 18 21 1017.8 1017.7 -
03/09:00am 23.5 - - - - SE 26 32 14 17 1017.8 1017.7 -
03/08:30am 23.4 - - - - SE 33 43 18 23 1017.4 1017.3 -
03/08:00am 23.5 - - - - SE 32 37 17 20 1017.3 1017.2 -
03/07:30am 23.4 - - - - SE 32 39 17 21 1017.0 1016.9 -
03/07:23am 23.3 - - - - SE 32 35 17 19 1017.1 1017.0 -
03/07:00am 22.3 - - - - ESE 41 52 22 28 1017.1 1017.0 -
03/06:30am 24.1 - - - - SE 33 41 18 22 1016.6 1016.5 -
03/06:00am 23.4 - - - - SE 32 39 17 21 1016.5 1016.4 -
03/05:30am 22.4 - - - - ESE 37 50 20 27 1016.5 1016.4 -
03/05:00am 23.6 - - - - ESE 33 39 18 21 1016.2 1016.1 -
03/04:30am 23.4 - - - - ESE 37 44 20 24 1016.0 1015.9 -
03/04:00am 23.3 - - - - SE 32 39 17 21 1016.1 1016.0 -
03/03:30am 23.8 - - - - ESE 26 32 14 17 1016.2 1016.1 -
03/03:00am 23.8 - - - - SE 32 35 17 19 1016.3 1016.2 -
03/02:30am 23.8 - - - - SE 30 35 16 19 1016.4 1016.3 -
03/02:00am 23.9 - - - - ESE 30 37 16 20 1016.6 1016.5 -
03/01:30am 23.9 - - - - SE 28 33 15 18 1016.9 1016.8 -
03/01:00am 24.0 - - - - SE 28 33 15 18 1017.3 1017.2 -
03/12:30am 24.0 - - - - ESE 30 35 16 19 1017.6 1017.5 -
03/12:00am 24.2 - - - - ESE 28 35 15 19 1017.7 1017.6 -
 
Date/Time
EST
Temp
°C
App
Temp
°C
Dew
Point
Rel
Hum
%
Delta-T
°C
Wind Press
QNH
hPa
Press
MSL
hPa
Rain
since 9 am
mm
Dir
 
Spd
km/h
Gust
km/h
Spd
kts
Gust
kts
02/11:30pm 24.2 - - - - ESE 33 37 18 20 1017.9 1017.8 -
02/11:00pm 24.3 - - - - ESE 32 39 17 21 1017.9 1017.8 -
02/10:30pm 24.2 - - - - SE 32 37 17 20 1018.0 1017.9 -
02/10:00pm 24.2 - - - - SE 35 39 19 21 1017.7 1017.6 -
02/09:30pm 24.2 - - - - SE 33 37 18 20 1017.7 1017.6 -
02/09:00pm 24.5 - - - - SE 33 43 18 23 1017.7 1017.6 -

Other Formats:

Comma delimited format used in spreadsheet applications
http://www.bom.gov.au/fwo/IDQ60801/IDQ60801.94293.axf

JavaScript Object Notation format (JSON) in row-major order
http://www.bom.gov.au/fwo/IDQ60801/IDQ60801.94293.json